Time;durP1;ratioP1;P1;durP2;ratioP2;P2;SDS_P1;SDS_P2;PMS_P1;PMS_P2;Temp;Humidity;BMP_temperature;BMP_pressure;BME280_temperature;BME280_humidity;BME280_pressure;Samples;Min_cycle;Max_cycle;Signal;HPM_P1;HPM_P2
2021/11/24 00:00:12;;;;;;;29.73;19.77;;;7.30;98.30;;;;;;4147473;28;20503;-79
2021/11/24 00:02:15;;;;;;;27.63;18.30;;;7.30;98.30;;;;;;4147809;28;20472;-79
2021/11/24 00:04:18;;;;;;;31.93;17.90;;;7.30;98.30;;;;;;4146463;28;20496;-79
2021/11/24 00:06:21;;;;;;;29.90;20.17;;;7.30;98.30;;;;;;4147688;28;20517;-79
2021/11/24 00:08:23;;;;;;;28.43;19.43;;;7.30;98.30;;;;;;4147768;28;21003;-79
2021/11/24 00:10:31;;;;;;;28.30;19.10;;;7.20;98.30;;;;;;4143635;28;20494;-79
2021/11/24 00:12:34;;;;;;;30.30;20.10;;;7.30;98.30;;;;;;4147327;28;20975;-78
2021/11/24 00:14:37;;;;;;;28.93;19.03;;;7.30;98.30;;;;;;4147319;28;20501;-79
2021/11/24 00:16:40;;;;;;;28.73;19.40;;;7.30;98.30;;;;;;4147258;28;20474;-78
2021/11/24 00:18:43;;;;;;;30.17;19.60;;;7.30;98.30;;;;;;4147908;28;20470;-79
2021/11/24 00:20:46;;;;;;;32.77;20.97;;;7.30;98.30;;;;;;4148005;28;20826;-79
2021/11/24 00:22:49;;;;;;;27.60;19.00;;;7.30;98.30;;;;;;4147520;28;20581;-80
2021/11/24 00:24:52;;;;;;;29.43;19.90;;;7.30;98.30;;;;;;4143424;28;20935;-79
2021/11/24 00:26:56;;;;;;;31.50;20.07;;;7.30;98.30;;;;;;4148266;28;20479;-79
2021/11/24 00:28:59;;;;;;;28.73;18.80;;;7.30;98.30;;;;;;4154554;28;20956;-79
2021/11/24 00:31:02;;;;;;;26.90;17.87;;;7.40;98.30;;;;;;4158820;28;20947;-80
2021/11/24 00:33:05;;;;;;;27.27;17.77;;;7.40;98.30;;;;;;4158829;28;21336;-80
2021/11/24 00:35:08;;;;;;;28.40;16.17;;;7.40;98.30;;;;;;4155875;28;20482;-80
2021/11/24 00:37:11;;;;;;;25.90;18.37;;;7.40;98.30;;;;;;4152155;28;20454;-79
2021/11/24 00:39:14;;;;;;;25.60;18.50;;;7.40;98.30;;;;;;4151530;28;20866;-79
2021/11/24 00:41:17;;;;;;;21.77;14.47;;;7.40;98.30;;;;;;4151381;28;20815;-79
2021/11/24 00:43:21;;;;;;;27.90;18.60;;;7.40;98.30;;;;;;4151259;28;20894;-78
2021/11/24 00:45:24;;;;;;;23.77;17.73;;;7.40;98.30;;;;;;4151017;28;20441;-78
2021/11/24 00:47:27;;;;;;;24.87;18.77;;;7.40;98.30;;;;;;4153132;28;20835;-79
2021/11/24 00:49:30;;;;;;;23.20;17.27;;;7.40;98.30;;;;;;4150978;28;20514;-79
2021/11/24 00:51:33;;;;;;;29.20;19.17;;;7.30;98.30;;;;;;4151666;28;21187;-79
2021/11/24 00:53:36;;;;;;;23.67;17.90;;;7.30;98.30;;;;;;4151707;28;20497;-79
2021/11/24 00:55:39;;;;;;;26.43;18.33;;;7.40;98.30;;;;;;4151136;28;20525;-79
2021/11/24 00:57:42;;;;;;;23.50;15.30;;;7.40;98.30;;;;;;4151846;28;20465;-79
2021/11/24 00:59:46;;;;;;;24.80;15.00;;;7.40;98.30;;;;;;4150530;28;20466;-79
2021/11/24 01:01:49;;;;;;;26.43;17.67;;;7.30;98.30;;;;;;4151477;28;20468;-79
2021/11/24 01:03:52;;;;;;;21.00;17.00;;;7.40;98.30;;;;;;4150712;28;20853;-79
2021/11/24 01:05:55;;;;;;;20.73;16.37;;;7.30;98.30;;;;;;4149402;28;20459;-79
2021/11/24 01:07:58;;;;;;;25.27;18.07;;;7.30;98.30;;;;;;4150965;28;20446;-80
2021/11/24 01:10:01;;;;;;;23.77;16.20;;;7.30;98.30;;;;;;4150804;28;20470;-79
2021/11/24 01:12:05;;;;;;;22.30;16.20;;;7.30;98.30;;;;;;4150706;28;20459;-78
2021/11/24 01:14:08;;;;;;;26.23;17.97;;;7.30;98.30;;;;;;4151456;28;20569;-78
2021/11/24 01:16:13;;;;;;;19.60;15.20;;;7.20;98.30;;;;;;4148984;28;20606;-79
2021/11/24 01:18:17;;;;;;;22.17;16.13;;;7.20;98.30;;;;;;4150063;28;20508;-78
2021/11/24 01:20:20;;;;;;;23.30;18.27;;;7.20;98.30;;;;;;4149896;28;20494;-78
2021/11/24 01:22:22;;;;;;;24.77;17.10;;;7.30;98.30;;;;;;4150670;28;20531;-79
2021/11/24 01:24:25;;;;;;;25.60;17.00;;;7.20;98.30;;;;;;4148394;28;20449;-79
2021/11/24 01:26:28;;;;;;;21.60;16.17;;;7.20;98.30;;;;;;4150141;28;20466;-78
2021/11/24 01:28:31;;;;;;;26.97;17.70;;;7.30;98.30;;;;;;4149892;28;20530;-79
2021/11/24 01:30:34;;;;;;;25.87;18.80;;;7.30;98.30;;;;;;4149848;28;20822;-79
2021/11/24 01:32:39;;;;;;;28.27;17.80;;;7.30;98.30;;;;;;4149901;28;21164;-78
2021/11/24 01:34:42;;;;;;;25.40;18.30;;;7.30;98.30;;;;;;4145565;28;20462;-79
2021/11/24 01:36:45;;;;;;;26.03;19.03;;;7.30;98.30;;;;;;4150413;28;20466;-80
2021/11/24 01:38:47;;;;;;;23.13;18.50;;;7.20;98.30;;;;;;4149316;28;20480;-79
2021/11/24 01:40:51;;;;;;;24.20;16.67;;;7.30;98.30;;;;;;4150242;28;20494;-79
2021/11/24 01:42:54;;;;;;;26.20;17.43;;;7.20;98.30;;;;;;4148763;28;20487;-80
2021/11/24 01:44:57;;;;;;;23.33;18.47;;;7.30;98.30;;;;;;4145819;28;20470;-79
2021/11/24 01:47:03;;;;;;;23.53;16.90;;;7.30;98.30;;;;;;4148509;28;20474;-79
2021/11/24 01:49:07;;;;;;;28.40;20.30;;;7.30;98.30;;;;;;4149523;28;20483;-79
2021/11/24 01:51:10;;;;;;;27.87;18.70;;;7.30;98.30;;;;;;4149872;28;20511;-79
2021/11/24 01:53:13;;;;;;;30.77;20.73;;;7.30;98.30;;;;;;4151791;28;20477;-79
2021/11/24 01:55:18;;;;;;;25.63;18.80;;;7.30;98.30;;;;;;4148512;28;20905;-79
2021/11/24 01:57:23;;;;;;;28.73;20.23;;;7.30;98.30;;;;;;4151053;28;21033;-79
2021/11/24 01:59:27;;;;;;;27.80;20.03;;;7.30;98.30;;;;;;4145149;28;20898;-79
2021/11/24 02:01:30;;;;;;;27.63;19.87;;;7.30;98.30;;;;;;4150339;28;20573;-79
2021/11/24 02:03:33;;;;;;;28.57;21.17;;;7.30;98.30;;;;;;4149831;28;20490;-79
2021/11/24 02:05:37;;;;;;;29.07;21.00;;;7.30;98.30;;;;;;4149761;28;20470;-80
2021/11/24 02:07:40;;;;;;;27.17;19.67;;;7.30;98.30;;;;;;4150350;28;21093;-79
2021/11/24 02:09:44;;;;;;;26.20;20.53;;;7.40;98.30;;;;;;4149282;28;20471;-79
2021/11/24 02:11:47;;;;;;;29.37;19.57;;;7.40;98.30;;;;;;4151117;28;20470;-79
2021/11/24 02:13:50;;;;;;;30.47;21.87;;;7.40;98.30;;;;;;4153640;28;20493;-79
2021/11/24 02:15:53;;;;;;;29.50;20.97;;;7.30;98.30;;;;;;4148885;28;20480;-79
2021/11/24 02:18:02;;;;;;;32.73;21.70;;;7.30;98.30;;;;;;4149556;28;21990;-79
2021/11/24 02:20:06;;;;;;;35.63;20.63;;;7.30;98.30;;;;;;4149333;28;20517;-79
2021/11/24 02:22:11;;;;;;;30.13;21.00;;;7.30;98.30;;;;;;4149628;28;20497;-79
2021/11/24 02:24:15;;;;;;;31.47;21.53;;;7.30;98.30;;;;;;4149551;28;20547;-79
2021/11/24 02:26:18;;;;;;;29.87;20.87;;;7.30;98.30;;;;;;4148492;28;20967;-79
2021/11/24 02:28:21;;;;;;;33.17;20.40;;;7.40;98.30;;;;;;4149323;28;20477;-79
2021/11/24 02:30:24;;;;;;;33.83;22.10;;;7.40;98.30;;;;;;4149594;28;20481;-79
2021/11/24 02:32:27;;;;;;;32.13;19.80;;;7.40;98.30;;;;;;4149634;28;20525;-79
2021/11/24 02:34:30;;;;;;;28.33;20.77;;;7.40;98.30;;;;;;4149719;28;20448;-79
2021/11/24 02:36:34;;;;;;;28.70;21.13;;;7.40;98.30;;;;;;4149159;28;20967;-79
2021/11/24 02:38:38;;;;;;;28.60;21.50;;;7.40;98.30;;;;;;4145836;28;20447;-79
2021/11/24 02:40:41;;;;;;;26.37;20.07;;;7.40;98.30;;;;;;4149174;28;20459;-78
2021/11/24 02:42:44;;;;;;;34.20;22.20;;;7.40;98.30;;;;;;4148782;28;20884;-79
2021/11/24 02:44:47;;;;;;;30.60;20.87;;;7.40;98.30;;;;;;4149239;28;20474;-79
2021/11/24 02:46:51;;;;;;;33.00;21.67;;;7.40;98.30;;;;;;4150111;28;20449;-79
2021/11/24 02:48:54;;;;;;;33.63;19.53;;;7.40;98.30;;;;;;4147606;28;20493;-79
2021/11/24 02:50:57;;;;;;;36.73;22.13;;;7.40;98.30;;;;;;4148101;28;20514;-79
2021/11/24 02:53:00;;;;;;;29.57;19.23;;;7.40;98.30;;;;;;4151279;28;20589;-79
2021/11/24 02:55:28;;;;;;;31.83;20.50;;;7.40;98.30;;;;;;4139974;28;20479;-79
2021/11/24 02:57:32;;;;;;;47.50;22.60;;;7.40;98.30;;;;;;4148177;28;20473;-79
2021/11/24 02:59:37;;;;;;;44.23;18.30;;;7.40;98.30;;;;;;4147128;28;20472;-79
2021/11/24 03:01:40;;;;;;;37.53;20.37;;;7.50;98.30;;;;;;4141297;28;20497;-78
2021/11/24 03:03:43;;;;;;;42.20;18.30;;;7.50;98.30;;;;;;4147349;28;20504;-78
2021/11/24 03:05:47;;;;;;;33.80;20.40;;;7.50;98.30;;;;;;4147595;28;20489;-78
2021/11/24 03:07:51;;;;;;;29.37;18.70;;;7.50;98.30;;;;;;4147589;28;20492;-79
2021/11/24 03:09:53;;;;;;;34.07;20.93;;;7.50;98.30;;;;;;4148019;28;20485;-79
2021/11/24 03:11:58;;;;;;;38.53;21.30;;;7.50;98.30;;;;;;4149384;28;20477;-79
2021/11/24 03:14:01;;;;;;;28.97;19.03;;;7.50;98.30;;;;;;4148734;28;20536;-78
2021/11/24 03:16:04;;;;;;;33.37;20.83;;;7.50;98.30;;;;;;4148414;28;20455;-78
2021/11/24 03:18:07;;;;;;;41.00;22.10;;;7.50;98.30;;;;;;4148153;28;20528;-79
2021/11/24 03:20:11;;;;;;;28.23;16.97;;;7.50;98.30;;;;;;4148871;28;20472;-79
2021/11/24 03:22:21;;;;;;;31.23;18.87;;;7.50;98.30;;;;;;4150905;28;20475;-79
2021/11/24 03:24:24;;;;;;;31.77;20.80;;;7.50;98.30;;;;;;4146975;28;20494;-79
2021/11/24 03:26:27;;;;;;;26.90;16.43;;;7.50;98.30;;;;;;4139928;28;20470;-79
2021/11/24 03:28:31;;;;;;;27.93;18.53;;;7.50;98.30;;;;;;4148552;28;20518;-79
2021/11/24 03:30:35;;;;;;;29.87;17.90;;;7.60;98.30;;;;;;4148076;28;20489;-79
2021/11/24 03:32:38;;;;;;;31.63;18.60;;;7.60;98.30;;;;;;4149917;28;20966;-79
2021/11/24 03:34:41;;;;;;;28.17;15.90;;;7.60;98.30;;;;;;4149998;28;20473;-79
2021/11/24 03:36:43;;;;;;;30.10;16.10;;;7.70;98.30;;;;;;4143356;28;20553;-78
2021/11/24 03:38:47;;;;;;;28.50;17.47;;;7.70;98.30;;;;;;4148400;28;20474;-78
2021/11/24 03:40:50;;;;;;;25.43;16.90;;;7.70;98.30;;;;;;4149429;28;20467;-78
2021/11/24 03:42:53;;;;;;;22.97;16.30;;;7.70;98.30;;;;;;4142950;28;20502;-78
2021/11/24 15:32:07;;;;;;;6.30;5.50;;;8.20;98.30;;;;;;4754228;23;20888;-85
2021/11/24 15:34:32;;;;;;;7.33;5.40;;;8.20;98.30;;;;;;4050483;29;20591;-85
